sensor_id;sensor_type;location;lat;lon;timestamp;temperature;humidity
56725;DHT22;42608;52.776;6.968;2023-04-01T00:00:28;10.30;99.90
56725;DHT22;42608;52.776;6.968;2023-04-01T00:02:53;10.30;99.90
56725;DHT22;42608;52.776;6.968;2023-04-01T00:05:19;10.30;99.90
56725;DHT22;42608;52.776;6.968;2023-04-01T00:07:45;10.30;99.90
56725;DHT22;42608;52.776;6.968;2023-04-01T00:10:11;10.30;99.90
56725;DHT22;42608;52.776;6.968;2023-04-01T00:12:37;10.30;99.90
56725;DHT22;42608;52.776;6.968;2023-04-01T00:15:04;10.30;99.90
56725;DHT22;42608;52.776;6.968;2023-04-01T00:17:30;10.30;99.90
56725;DHT22;42608;52.776;6.968;2023-04-01T00:19:56;10.30;99.90
56725;DHT22;42608;52.776;6.968;2023-04-01T00:22:22;10.30;99.90
56725;DHT22;42608;52.776;6.968;2023-04-01T00:24:48;10.30;99.90
56725;DHT22;42608;52.776;6.968;2023-04-01T00:27:13;10.30;99.90
56725;DHT22;42608;52.776;6.968;2023-04-01T00:29:43;10.30;99.90
56725;DHT22;42608;52.776;6.968;2023-04-01T00:32:08;10.30;99.90
56725;DHT22;42608;52.776;6.968;2023-04-01T00:34:34;10.30;99.90
56725;DHT22;42608;52.776;6.968;2023-04-01T00:37:00;10.20;99.90
56725;DHT22;42608;52.776;6.968;2023-04-01T00:39:28;10.30;99.90
56725;DHT22;42608;52.776;6.968;2023-04-01T00:41:53;10.20;99.90
56725;DHT22;42608;52.776;6.968;2023-04-01T00:44:20;10.30;99.90
56725;DHT22;42608;52.776;6.968;2023-04-01T00:46:46;10.30;99.90
56725;DHT22;42608;52.776;6.968;2023-04-01T00:49:13;10.30;99.90
56725;DHT22;42608;52.776;6.968;2023-04-01T00:51:39;10.30;99.90
56725;DHT22;42608;52.776;6.968;2023-04-01T00:54:06;10.30;99.90
56725;DHT22;42608;52.776;6.968;2023-04-01T00:56:32;10.30;99.90
56725;DHT22;42608;52.776;6.968;2023-04-01T00:59:13;10.30;99.90
56725;DHT22;42608;52.776;6.968;2023-04-01T01:01:39;10.30;99.90
56725;DHT22;42608;52.776;6.968;2023-04-01T01:04:05;10.20;99.90
56725;DHT22;42608;52.776;6.968;2023-04-01T01:06:49;10.20;99.90
56725;DHT22;42608;52.776;6.968;2023-04-01T01:09:31;10.30;99.90
56725;DHT22;42608;52.776;6.968;2023-04-01T01:15:15;10.20;99.90
56725;DHT22;42608;52.776;6.968;2023-04-01T01:27:30;10.20;99.90
56725;DHT22;42608;52.776;6.968;2023-04-01T01:35:33;10.20;99.90
56725;DHT22;42608;52.776;6.968;2023-04-01T01:38:00;10.20;99.90
56725;DHT22;42608;52.776;6.968;2023-04-01T01:40:27;10.10;99.90
56725;DHT22;42608;52.776;6.968;2023-04-01T01:42:55;10.20;99.90
56725;DHT22;42608;52.776;6.968;2023-04-01T01:45:22;10.20;99.90
56725;DHT22;42608;52.776;6.968;2023-04-01T01:47:49;10.20;99.90
56725;DHT22;42608;52.776;6.968;2023-04-01T01:50:15;10.20;99.90
56725;DHT22;42608;52.776;6.968;2023-04-01T01:52:42;10.20;99.90
56725;DHT22;42608;52.776;6.968;2023-04-01T01:55:24;10.20;99.90
56725;DHT22;42608;52.776;6.968;2023-04-01T01:57:51;10.20;99.90
56725;DHT22;42608;52.776;6.968;2023-04-01T02:00:17;10.20;99.90
56725;DHT22;42608;52.776;6.968;2023-04-01T02:02:44;10.20;99.90
56725;DHT22;42608;52.776;6.968;2023-04-01T02:05:11;10.20;99.90
56725;DHT22;42608;52.776;6.968;2023-04-01T02:07:41;10.20;99.90
56725;DHT22;42608;52.776;6.968;2023-04-01T02:10:08;10.20;99.90
56725;DHT22;42608;52.776;6.968;2023-04-01T02:12:34;10.20;99.90
56725;DHT22;42608;52.776;6.968;2023-04-01T02:15:09;10.20;99.90
56725;DHT22;42608;52.776;6.968;2023-04-01T02:17:38;10.20;99.90
56725;DHT22;42608;52.776;6.968;2023-04-01T02:20:09;10.20;99.90
56725;DHT22;42608;52.776;6.968;2023-04-01T02:22:40;10.20;99.90
56725;DHT22;42608;52.776;6.968;2023-04-01T02:25:08;10.20;99.90
56725;DHT22;42608;52.776;6.968;2023-04-01T02:27:34;10.20;99.90
56725;DHT22;42608;52.776;6.968;2023-04-01T02:30:00;10.20;99.90
56725;DHT22;42608;52.776;6.968;2023-04-01T02:32:26;10.20;99.90
56725;DHT22;42608;52.776;6.968;2023-04-01T02:34:53;10.20;99.90
56725;DHT22;42608;52.776;6.968;2023-04-01T02:37:18;10.20;99.90
56725;DHT22;42608;52.776;6.968;2023-04-01T02:39:44;10.20;99.90
56725;DHT22;42608;52.776;6.968;2023-04-01T02:42:10;10.20;99.90
56725;DHT22;42608;52.776;6.968;2023-04-01T02:44:35;10.10;99.90
56725;DHT22;42608;52.776;6.968;2023-04-01T02:47:01;10.10;99.90
56725;DHT22;42608;52.776;6.968;2023-04-01T02:49:27;10.10;99.90
56725;DHT22;42608;52.776;6.968;2023-04-01T02:51:52;10.10;99.90
56725;DHT22;42608;52.776;6.968;2023-04-01T02:54:18;10.10;99.90
56725;DHT22;42608;52.776;6.968;2023-04-01T02:56:44;10.10;99.90
56725;DHT22;42608;52.776;6.968;2023-04-01T02:59:11;10.10;99.90
56725;DHT22;42608;52.776;6.968;2023-04-01T03:01:36;10.10;99.90
56725;DHT22;42608;52.776;6.968;2023-04-01T03:04:02;10.10;99.90
56725;DHT22;42608;52.776;6.968;2023-04-01T03:06:27;10.10;99.90
56725;DHT22;42608;52.776;6.968;2023-04-01T03:08:53;10.10;99.90
56725;DHT22;42608;52.776;6.968;2023-04-01T03:11:18;10.10;99.90
56725;DHT22;42608;52.776;6.968;2023-04-01T03:13:45;10.10;99.90
56725;DHT22;42608;52.776;6.968;2023-04-01T03:16:10;10.10;99.90
56725;DHT22;42608;52.776;6.968;2023-04-01T03:18:36;10.10;99.90
56725;DHT22;42608;52.776;6.968;2023-04-01T03:21:15;10.10;99.90
56725;DHT22;42608;52.776;6.968;2023-04-01T03:23:41;10.10;99.90
56725;DHT22;42608;52.776;6.968;2023-04-01T03:26:06;10.10;99.90
56725;DHT22;42608;52.776;6.968;2023-04-01T03:28:32;10.10;99.90
56725;DHT22;42608;52.776;6.968;2023-04-01T03:30:57;10.10;99.90
56725;DHT22;42608;52.776;6.968;2023-04-01T03:33:23;10.10;99.90
56725;DHT22;42608;52.776;6.968;2023-04-01T03:35:48;10.10;99.90
56725;DHT22;42608;52.776;6.968;2023-04-01T03:38:17;10.10;99.90
56725;DHT22;42608;52.776;6.968;2023-04-01T03:40:43;10.10;99.90
56725;DHT22;42608;52.776;6.968;2023-04-01T03:43:09;10.10;99.90
56725;DHT22;42608;52.776;6.968;2023-04-01T03:45:35;10.00;99.90
56725;DHT22;42608;52.776;6.968;2023-04-01T03:48:01;10.10;99.90
56725;DHT22;42608;52.776;6.968;2023-04-01T03:50:26;10.00;99.90
56725;DHT22;42608;52.776;6.968;2023-04-01T03:52:52;10.00;99.90
56725;DHT22;42608;52.776;6.968;2023-04-01T03:55:18;10.00;99.90
56725;DHT22;42608;52.776;6.968;2023-04-01T03:57:43;10.00;99.90
56725;DHT22;42608;52.776;6.968;2023-04-01T04:00:09;10.10;99.90
56725;DHT22;42608;52.776;6.968;2023-04-01T04:02:35;10.00;99.90
56725;DHT22;42608;52.776;6.968;2023-04-01T04:05:01;10.00;99.90
56725;DHT22;42608;52.776;6.968;2023-04-01T04:07:26;10.00;99.90
56725;DHT22;42608;52.776;6.968;2023-04-01T04:09:52;10.00;99.90
56725;DHT22;42608;52.776;6.968;2023-04-01T04:12:17;10.00;99.90
56725;DHT22;42608;52.776;6.968;2023-04-01T04:14:43;10.00;99.90
56725;DHT22;42608;52.776;6.968;2023-04-01T04:17:10;10.00;99.90
56725;DHT22;42608;52.776;6.968;2023-04-01T04:19:39;10.00;99.90
56725;DHT22;42608;52.776;6.968;2023-04-01T04:22:04;10.00;99.90
56725;DHT22;42608;52.776;6.968;2023-04-01T04:24:30;10.00;99.90
56725;DHT22;42608;52.776;6.968;2023-04-01T04:26:55;10.00;99.90
56725;DHT22;42608;52.776;6.968;2023-04-01T04:29:21;10.00;99.90
56725;DHT22;42608;52.776;6.968;2023-04-01T04:31:48;10.00;99.90
56725;DHT22;42608;52.776;6.968;2023-04-01T04:34:13;9.90;99.90
56725;DHT22;42608;52.776;6.968;2023-04-01T04:36:39;9.90;99.90
56725;DHT22;42608;52.776;6.968;2023-04-01T04:39:04;9.90;99.90
56725;DHT22;42608;52.776;6.968;2023-04-01T04:41:30;10.00;99.90
56725;DHT22;42608;52.776;6.968;2023-04-01T04:43:56;9.90;99.90
56725;DHT22;42608;52.776;6.968;2023-04-01T04:46:22;9.90;99.90
56725;DHT22;42608;52.776;6.968;2023-04-01T04:48:47;9.90;99.90
56725;DHT22;42608;52.776;6.968;2023-04-01T04:51:17;10.00;99.90
56725;DHT22;42608;52.776;6.968;2023-04-01T04:53:43;9.90;99.90
56725;DHT22;42608;52.776;6.968;2023-04-01T04:56:08;9.90;99.90
56725;DHT22;42608;52.776;6.968;2023-04-01T04:58:34;9.90;99.90
56725;DHT22;42608;52.776;6.968;2023-04-01T05:01:05;9.90;99.90
56725;DHT22;42608;52.776;6.968;2023-04-01T05:03:30;9.90;99.90
56725;DHT22;42608;52.776;6.968;2023-04-01T05:05:56;9.90;99.90
56725;DHT22;42608;52.776;6.968;2023-04-01T05:08:22;9.90;99.90
56725;DHT22;42608;52.776;6.968;2023-04-01T05:10:47;9.90;99.90
56725;DHT22;42608;52.776;6.968;2023-04-01T05:13:13;9.90;99.90
56725;DHT22;42608;52.776;6.968;2023-04-01T05:15:38;9.90;99.90
56725;DHT22;42608;52.776;6.968;2023-04-01T05:18:04;9.90;99.90
56725;DHT22;42608;52.776;6.968;2023-04-01T05:20:30;9.90;99.90
56725;DHT22;42608;52.776;6.968;2023-04-01T05:22:56;9.90;99.90
56725;DHT22;42608;52.776;6.968;2023-04-01T05:25:21;9.90;99.90
56725;DHT22;42608;52.776;6.968;2023-04-01T05:27:47;9.90;99.90
56725;DHT22;42608;52.776;6.968;2023-04-01T05:30:12;9.90;99.90
56725;DHT22;42608;52.776;6.968;2023-04-01T05:32:38;9.90;99.90
56725;DHT22;42608;52.776;6.968;2023-04-01T05:35:04;9.90;99.90
56725;DHT22;42608;52.776;6.968;2023-04-01T05:37:29;9.90;99.90
56725;DHT22;42608;52.776;6.968;2023-04-01T05:39:55;9.90;99.90
56725;DHT22;42608;52.776;6.968;2023-04-01T05:42:21;9.90;99.90
56725;DHT22;42608;52.776;6.968;2023-04-01T05:44:46;9.90;99.90
56725;DHT22;42608;52.776;6.968;2023-04-01T05:47:12;9.90;99.90
56725;DHT22;42608;52.776;6.968;2023-04-01T05:49:37;9.90;99.90
56725;DHT22;42608;52.776;6.968;2023-04-01T05:52:03;9.90;99.90
56725;DHT22;42608;52.776;6.968;2023-04-01T05:54:29;9.90;99.90
56725;DHT22;42608;52.776;6.968;2023-04-01T05:56:54;9.90;99.90
56725;DHT22;42608;52.776;6.968;2023-04-01T05:59:20;9.90;99.90
56725;DHT22;42608;52.776;6.968;2023-04-01T06:01:46;9.90;99.90
56725;DHT22;42608;52.776;6.968;2023-04-01T06:04:15;9.90;99.90
56725;DHT22;42608;52.776;6.968;2023-04-01T06:06:41;9.90;99.90
56725;DHT22;42608;52.776;6.968;2023-04-01T06:09:17;9.90;99.90
56725;DHT22;42608;52.776;6.968;2023-04-01T06:11:46;9.90;99.90
56725;DHT22;42608;52.776;6.968;2023-04-01T06:29:43;9.90;99.90
56725;DHT22;42608;52.776;6.968;2023-04-01T06:42:42;10.00;99.90
56725;DHT22;42608;52.776;6.968;2023-04-01T06:45:28;10.00;99.90
56725;DHT22;42608;52.776;6.968;2023-04-01T06:50:34;10.10;99.90
56725;DHT22;42608;52.776;6.968;2023-04-01T06:53:05;10.10;99.90
56725;DHT22;42608;52.776;6.968;2023-04-01T06:55:34;10.00;99.90
56725;DHT22;42608;52.776;6.968;2023-04-01T06:58:03;10.10;99.90
56725;DHT22;42608;52.776;6.968;2023-04-01T07:00:32;10.10;99.90
56725;DHT22;42608;52.776;6.968;2023-04-01T07:03:10;10.10;99.90
56725;DHT22;42608;52.776;6.968;2023-04-01T07:05:40;10.10;99.90
56725;DHT22;42608;52.776;6.968;2023-04-01T07:08:08;10.10;99.90
56725;DHT22;42608;52.776;6.968;2023-04-01T07:10:41;10.10;99.90
56725;DHT22;42608;52.776;6.968;2023-04-01T07:13:51;10.10;99.90
56725;DHT22;42608;52.776;6.968;2023-04-01T07:16:14;10.10;99.90
56725;DHT22;42608;52.776;6.968;2023-04-01T07:18:45;10.10;99.90
56725;DHT22;42608;52.776;6.968;2023-04-01T07:21:22;10.10;99.90
56725;DHT22;42608;52.776;6.968;2023-04-01T07:23:48;10.20;99.90
56725;DHT22;42608;52.776;6.968;2023-04-01T07:26:20;10.20;99.90
56725;DHT22;42608;52.776;6.968;2023-04-01T07:28:46;10.20;99.90
56725;DHT22;42608;52.776;6.968;2023-04-01T07:33:39;10.20;99.90
56725;DHT22;42608;52.776;6.968;2023-04-01T07:36:12;10.20;99.90
56725;DHT22;42608;52.776;6.968;2023-04-01T07:43:53;10.30;99.90
56725;DHT22;42608;52.776;6.968;2023-04-01T07:48:55;10.20;99.90
56725;DHT22;42608;52.776;6.968;2023-04-01T07:59:42;10.30;99.90
56725;DHT22;42608;52.776;6.968;2023-04-01T08:07:17;10.30;99.90
56725;DHT22;42608;52.776;6.968;2023-04-01T08:09:59;10.30;99.90
56725;DHT22;42608;52.776;6.968;2023-04-01T08:12:38;10.40;99.90
56725;DHT22;42608;52.776;6.968;2023-04-01T08:17:45;10.40;99.90
56725;DHT22;42608;52.776;6.968;2023-04-01T08:22:58;10.40;99.90
56725;DHT22;42608;52.776;6.968;2023-04-01T08:25:26;10.50;99.90
56725;DHT22;42608;52.776;6.968;2023-04-01T08:30:21;10.50;99.90
56725;DHT22;42608;52.776;6.968;2023-04-01T08:32:56;10.50;99.90
56725;DHT22;42608;52.776;6.968;2023-04-01T08:37:53;10.50;99.90
56725;DHT22;42608;52.776;6.968;2023-04-01T08:40:42;10.50;99.90
56725;DHT22;42608;52.776;6.968;2023-04-01T08:43:16;10.50;99.90
56725;DHT22;42608;52.776;6.968;2023-04-01T09:01:49;10.80;99.90
56725;DHT22;42608;52.776;6.968;2023-04-01T09:04:21;10.80;99.90
56725;DHT22;42608;52.776;6.968;2023-04-01T09:14:35;10.80;99.90
56725;DHT22;42608;52.776;6.968;2023-04-01T09:22:22;10.80;99.90
56725;DHT22;42608;52.776;6.968;2023-04-01T09:27:43;10.80;99.90
56725;DHT22;42608;52.776;6.968;2023-04-01T09:30:17;10.70;99.90
56725;DHT22;42608;52.776;6.968;2023-04-01T09:32:54;10.80;99.90
56725;DHT22;42608;52.776;6.968;2023-04-01T09:35:24;10.80;99.90
56725;DHT22;42608;52.776;6.968;2023-04-01T09:43:01;10.90;99.90
56725;DHT22;42608;52.776;6.968;2023-04-01T09:51:17;10.90;99.90
56725;DHT22;42608;52.776;6.968;2023-04-01T09:53:42;10.90;99.90
56725;DHT22;42608;52.776;6.968;2023-04-01T09:56:31;10.90;99.90
56725;DHT22;42608;52.776;6.968;2023-04-01T09:59:08;10.90;99.90
56725;DHT22;42608;52.776;6.968;2023-04-01T10:07:04;10.90;99.90
56725;DHT22;42608;52.776;6.968;2023-04-01T10:30:41;11.30;99.90
56725;DHT22;42608;52.776;6.968;2023-04-01T10:38:46;11.40;99.90
56725;DHT22;42608;52.776;6.968;2023-04-01T10:51:41;11.40;99.90
56725;DHT22;42608;52.776;6.968;2023-04-01T10:57:24;11.50;99.90
56725;DHT22;42608;52.776;6.968;2023-04-01T11:12:37;11.70;99.90
56725;DHT22;42608;52.776;6.968;2023-04-01T11:15:15;11.70;99.90
56725;DHT22;42608;52.776;6.968;2023-04-01T11:30:49;12.00;99.90
56725;DHT22;42608;52.776;6.968;2023-04-01T11:33:23;12.10;99.90
56725;DHT22;42608;52.776;6.968;2023-04-01T11:54:19;11.80;99.90
56725;DHT22;42608;52.776;6.968;2023-04-01T11:56:51;11.70;99.90
56725;DHT22;42608;52.776;6.968;2023-04-01T12:04:44;11.40;99.90
56725;DHT22;42608;52.776;6.968;2023-04-01T12:17:41;11.20;99.90
56725;DHT22;42608;52.776;6.968;2023-04-01T12:22:58;11.00;99.90
56725;DHT22;42608;52.776;6.968;2023-04-01T12:28:21;11.00;99.90
56725;DHT22;42608;52.776;6.968;2023-04-01T12:31:13;11.00;99.90
56725;DHT22;42608;52.776;6.968;2023-04-01T12:54:17;10.80;99.90
56725;DHT22;42608;52.776;6.968;2023-04-01T12:56:56;10.80;99.90
56725;DHT22;42608;52.776;6.968;2023-04-01T13:02:30;10.70;99.90
56725;DHT22;42608;52.776;6.968;2023-04-01T13:12:59;10.50;99.90
56725;DHT22;42608;52.776;6.968;2023-04-01T13:15:34;10.50;99.90
56725;DHT22;42608;52.776;6.968;2023-04-01T13:25:58;10.30;99.90
56725;DHT22;42608;52.776;6.968;2023-04-01T13:28:27;10.30;99.90
56725;DHT22;42608;52.776;6.968;2023-04-01T13:33:23;10.20;99.90
56725;DHT22;42608;52.776;6.968;2023-04-01T13:38:43;10.10;99.90
56725;DHT22;42608;52.776;6.968;2023-04-01T13:43:42;10.10;99.90
56725;DHT22;42608;52.776;6.968;2023-04-01T13:54:15;10.00;99.90
56725;DHT22;42608;52.776;6.968;2023-04-01T14:12:06;10.20;99.90
56725;DHT22;42608;52.776;6.968;2023-04-01T14:14:48;10.20;99.90
56725;DHT22;42608;52.776;6.968;2023-04-01T14:22:25;10.20;99.90
56725;DHT22;42608;52.776;6.968;2023-04-01T14:32:38;10.10;99.90
56725;DHT22;42608;52.776;6.968;2023-04-01T14:40:11;9.90;99.90
56725;DHT22;42608;52.776;6.968;2023-04-01T14:42:45;9.90;99.90
56725;DHT22;42608;52.776;6.968;2023-04-01T14:45:36;9.80;99.90
56725;DHT22;42608;52.776;6.968;2023-04-01T14:50:40;9.80;99.90
56725;DHT22;42608;52.776;6.968;2023-04-01T15:00:48;9.70;99.90
56725;DHT22;42608;52.776;6.968;2023-04-01T15:08:52;9.60;99.90
56725;DHT22;42608;52.776;6.968;2023-04-01T15:14:08;9.50;99.90
56725;DHT22;42608;52.776;6.968;2023-04-01T15:22:27;9.60;99.90
56725;DHT22;42608;52.776;6.968;2023-04-01T15:27:51;9.60;99.90
56725;DHT22;42608;52.776;6.968;2023-04-01T15:30:19;9.60;99.90
56725;DHT22;42608;52.776;6.968;2023-04-01T15:53:17;9.30;99.90
56725;DHT22;42608;52.776;6.968;2023-04-01T16:00:46;9.30;99.90
56725;DHT22;42608;52.776;6.968;2023-04-01T16:03:17;9.30;99.90
56725;DHT22;42608;52.776;6.968;2023-04-01T16:11:08;9.20;99.90
56725;DHT22;42608;52.776;6.968;2023-04-01T16:16:39;9.20;99.90
56725;DHT22;42608;52.776;6.968;2023-04-01T16:22:05;9.00;99.90
56725;DHT22;42608;52.776;6.968;2023-04-01T16:27:05;8.90;99.90
56725;DHT22;42608;52.776;6.968;2023-04-01T16:32:12;8.90;99.90
56725;DHT22;42608;52.776;6.968;2023-04-01T16:34:42;8.90;99.90
56725;DHT22;42608;52.776;6.968;2023-04-01T16:37:10;8.80;99.90
56725;DHT22;42608;52.776;6.968;2023-04-01T16:39:58;8.80;99.90
56725;DHT22;42608;52.776;6.968;2023-04-01T16:44:57;8.70;99.90
56725;DHT22;42608;52.776;6.968;2023-04-01T16:48:00;8.70;99.90
56725;DHT22;42608;52.776;6.968;2023-04-01T16:52:54;8.60;99.90
56725;DHT22;42608;52.776;6.968;2023-04-01T16:55:33;8.60;99.90
56725;DHT22;42608;52.776;6.968;2023-04-01T16:58:00;8.60;99.90
56725;DHT22;42608;52.776;6.968;2023-04-01T17:00:47;8.50;99.90
56725;DHT22;42608;52.776;6.968;2023-04-01T17:03:16;8.60;99.90
56725;DHT22;42608;52.776;6.968;2023-04-01T17:21:02;8.30;99.90
56725;DHT22;42608;52.776;6.968;2023-04-01T17:31:26;8.10;99.90
56725;DHT22;42608;52.776;6.968;2023-04-01T17:51:52;8.00;99.90
56725;DHT22;42608;52.776;6.968;2023-04-01T18:00:14;8.00;99.90
56725;DHT22;42608;52.776;6.968;2023-04-01T18:10:25;7.70;99.90
56725;DHT22;42608;52.776;6.968;2023-04-01T18:16:24;7.70;99.90
56725;DHT22;42608;52.776;6.968;2023-04-01T18:18:43;7.70;99.90
56725;DHT22;42608;52.776;6.968;2023-04-01T18:21:25;7.60;99.90
56725;DHT22;42608;52.776;6.968;2023-04-01T18:26:47;7.60;99.90
56725;DHT22;42608;52.776;6.968;2023-04-01T18:39:39;7.50;99.90
56725;DHT22;42608;52.776;6.968;2023-04-01T18:44:45;7.50;99.90
56725;DHT22;42608;52.776;6.968;2023-04-01T18:52:15;7.40;99.90
56725;DHT22;42608;52.776;6.968;2023-04-01T18:57:17;7.40;99.90
56725;DHT22;42608;52.776;6.968;2023-04-01T18:59:50;7.40;99.90
56725;DHT22;42608;52.776;6.968;2023-04-01T19:02:36;7.30;99.90
56725;DHT22;42608;52.776;6.968;2023-04-01T19:10:16;7.20;99.90
56725;DHT22;42608;52.776;6.968;2023-04-01T19:25:46;7.00;99.90
56725;DHT22;42608;52.776;6.968;2023-04-01T19:28:22;7.10;99.90
56725;DHT22;42608;52.776;6.968;2023-04-01T19:30:56;7.00;99.90
56725;DHT22;42608;52.776;6.968;2023-04-01T19:36:09;7.00;99.90
56725;DHT22;42608;52.776;6.968;2023-04-01T19:38:40;7.00;99.90
56725;DHT22;42608;52.776;6.968;2023-04-01T19:43:50;7.00;99.90
56725;DHT22;42608;52.776;6.968;2023-04-01T19:49:09;6.80;99.90
56725;DHT22;42608;52.776;6.968;2023-04-01T19:51:42;6.90;99.90
56725;DHT22;42608;52.776;6.968;2023-04-01T19:54:16;6.90;99.90
56725;DHT22;42608;52.776;6.968;2023-04-01T19:56:50;6.90;99.90
56725;DHT22;42608;52.776;6.968;2023-04-01T20:00:19;6.90;99.90
56725;DHT22;42608;52.776;6.968;2023-04-01T20:04:42;6.80;99.90
56725;DHT22;42608;52.776;6.968;2023-04-01T20:07:10;6.80;99.90
56725;DHT22;42608;52.776;6.968;2023-04-01T20:14:46;6.80;99.90
56725;DHT22;42608;52.776;6.968;2023-04-01T20:17:21;6.80;99.90
56725;DHT22;42608;52.776;6.968;2023-04-01T20:20:00;6.80;99.90
56725;DHT22;42608;52.776;6.968;2023-04-01T20:25:05;6.70;99.90
56725;DHT22;42608;52.776;6.968;2023-04-01T20:27:33;6.80;99.90
56725;DHT22;42608;52.776;6.968;2023-04-01T20:32:33;6.70;99.90
56725;DHT22;42608;52.776;6.968;2023-04-01T20:35:23;6.70;99.90
56725;DHT22;42608;52.776;6.968;2023-04-01T20:40:38;6.70;99.90
56725;DHT22;42608;52.776;6.968;2023-04-01T21:11:09;6.50;99.90
56725;DHT22;42608;52.776;6.968;2023-04-01T21:18:46;6.40;99.90
56725;DHT22;42608;52.776;6.968;2023-04-01T21:24:01;6.40;99.90
56725;DHT22;42608;52.776;6.968;2023-04-01T21:32:29;6.30;99.90
56725;DHT22;42608;52.776;6.968;2023-04-01T21:42:05;6.30;99.90
56725;DHT22;42608;52.776;6.968;2023-04-01T21:54:57;6.20;99.90
56725;DHT22;42608;52.776;6.968;2023-04-01T21:57:31;6.20;99.90
56725;DHT22;42608;52.776;6.968;2023-04-01T22:07:34;6.20;99.90
56725;DHT22;42608;52.776;6.968;2023-04-01T22:12:31;6.10;99.90
56725;DHT22;42608;52.776;6.968;2023-04-01T22:15:08;6.00;99.90
56725;DHT22;42608;52.776;6.968;2023-04-01T22:22:49;5.90;99.90
56725;DHT22;42608;52.776;6.968;2023-04-01T22:25:18;5.90;99.90
56725;DHT22;42608;52.776;6.968;2023-04-01T22:27:48;5.90;99.90
56725;DHT22;42608;52.776;6.968;2023-04-01T22:32:48;5.90;99.90
56725;DHT22;42608;52.776;6.968;2023-04-01T22:35:30;5.80;99.90
56725;DHT22;42608;52.776;6.968;2023-04-01T22:40:25;5.80;99.90
56725;DHT22;42608;52.776;6.968;2023-04-01T22:42:55;5.80;99.90
56725;DHT22;42608;52.776;6.968;2023-04-01T22:52:43;5.80;99.90
56725;DHT22;42608;52.776;6.968;2023-04-01T22:55:19;5.70;99.90
56725;DHT22;42608;52.776;6.968;2023-04-01T22:57:55;5.70;99.90
56725;DHT22;42608;52.776;6.968;2023-04-01T23:00:29;5.70;99.90
56725;DHT22;42608;52.776;6.968;2023-04-01T23:03:07;5.70;99.90
56725;DHT22;42608;52.776;6.968;2023-04-01T23:05:40;5.70;99.90
56725;DHT22;42608;52.776;6.968;2023-04-01T23:10:52;5.80;99.90
56725;DHT22;42608;52.776;6.968;2023-04-01T23:13:56;5.70;99.90
56725;DHT22;42608;52.776;6.968;2023-04-01T23:16:13;5.70;99.90
56725;DHT22;42608;52.776;6.968;2023-04-01T23:18:50;5.70;99.90
56725;DHT22;42608;52.776;6.968;2023-04-01T23:21:24;5.80;99.90
56725;DHT22;42608;52.776;6.968;2023-04-01T23:26:39;5.70;99.90
56725;DHT22;42608;52.776;6.968;2023-04-01T23:29:11;5.70;99.90
56725;DHT22;42608;52.776;6.968;2023-04-01T23:31:38;5.60;99.90
56725;DHT22;42608;52.776;6.968;2023-04-01T23:34:18;5.60;99.90
56725;DHT22;42608;52.776;6.968;2023-04-01T23:36:46;5.60;99.90
56725;DHT22;42608;52.776;6.968;2023-04-01T23:41:48;5.60;99.90
56725;DHT22;42608;52.776;6.968;2023-04-01T23:44:13;5.60;99.90
56725;DHT22;42608;52.776;6.968;2023-04-01T23:46:41;5.50;99.90
56725;DHT22;42608;52.776;6.968;2023-04-01T23:49:20;5.50;99.90
56725;DHT22;42608;52.776;6.968;2023-04-01T23:52:02;5.50;99.90
56725;DHT22;42608;52.776;6.968;2023-04-01T23:56:57;5.50;99.90
56725;DHT22;42608;52.776;6.968;2023-04-01T23:59:24;5.50;99.90
